sensor_id;sensor_type;location;lat;lon;timestamp;P1;durP1;ratioP1;P2;durP2;ratioP2
7116;SDS011;3600;48.568;7.870;2022-08-03T00:00:22;2.90;;;2.67;;
7116;SDS011;3600;48.568;7.870;2022-08-03T00:02:50;2.92;;;2.72;;
7116;SDS011;3600;48.568;7.870;2022-08-03T00:05:17;4.05;;;2.80;;
7116;SDS011;3600;48.568;7.870;2022-08-03T00:07:44;4.18;;;3.00;;
7116;SDS011;3600;48.568;7.870;2022-08-03T00:10:13;3.25;;;2.78;;
7116;SDS011;3600;48.568;7.870;2022-08-03T00:12:40;3.40;;;2.83;;
7116;SDS011;3600;48.568;7.870;2022-08-03T00:15:07;3.88;;;2.70;;
7116;SDS011;3600;48.568;7.870;2022-08-03T00:17:41;2.97;;;2.67;;
7116;SDS011;3600;48.568;7.870;2022-08-03T00:20:18;3.40;;;2.67;;
7116;SDS011;3600;48.568;7.870;2022-08-03T00:22:45;2.63;;;2.40;;
7116;SDS011;3600;48.568;7.870;2022-08-03T00:25:11;3.00;;;2.70;;
7116;SDS011;3600;48.568;7.870;2022-08-03T00:27:38;2.95;;;2.75;;
7116;SDS011;3600;48.568;7.870;2022-08-03T00:30:05;2.85;;;2.65;;
7116;SDS011;3600;48.568;7.870;2022-08-03T00:32:32;3.05;;;2.80;;
7116;SDS011;3600;48.568;7.870;2022-08-03T00:34:59;3.70;;;2.90;;
7116;SDS011;3600;48.568;7.870;2022-08-03T00:37:35;3.10;;;2.80;;
7116;SDS011;3600;48.568;7.870;2022-08-03T00:40:07;3.25;;;3.05;;
7116;SDS011;3600;48.568;7.870;2022-08-03T00:43:12;3.30;;;3.00;;
7116;SDS011;3600;48.568;7.870;2022-08-03T00:45:33;3.13;;;2.75;;
7116;SDS011;3600;48.568;7.870;2022-08-03T00:48:02;3.60;;;3.00;;
7116;SDS011;3600;48.568;7.870;2022-08-03T00:50:31;3.75;;;2.80;;
7116;SDS011;3600;48.568;7.870;2022-08-03T00:53:00;3.00;;;2.80;;
7116;SDS011;3600;48.568;7.870;2022-08-03T00:55:30;2.97;;;2.78;;
7116;SDS011;3600;48.568;7.870;2022-08-03T00:57:58;3.15;;;2.90;;
7116;SDS011;3600;48.568;7.870;2022-08-03T01:00:26;3.20;;;3.00;;
7116;SDS011;3600;48.568;7.870;2022-08-03T01:02:53;4.15;;;2.83;;
7116;SDS011;3600;48.568;7.870;2022-08-03T01:05:20;3.70;;;3.10;;
7116;SDS011;3600;48.568;7.870;2022-08-03T01:13:42;4.60;;;4.18;;
7116;SDS011;3600;48.568;7.870;2022-08-03T01:16:36;6.20;;;4.10;;
7116;SDS011;3600;48.568;7.870;2022-08-03T01:24:56;3.55;;;3.33;;
7116;SDS011;3600;48.568;7.870;2022-08-03T01:30:20;3.40;;;2.97;;
7116;SDS011;3600;48.568;7.870;2022-08-03T01:35:33;4.10;;;3.80;;
7116;SDS011;3600;48.568;7.870;2022-08-03T01:41:16;3.97;;;3.53;;
7116;SDS011;3600;48.568;7.870;2022-08-03T01:43:46;3.70;;;3.30;;
7116;SDS011;3600;48.568;7.870;2022-08-03T01:46:36;3.53;;;3.20;;
7116;SDS011;3600;48.568;7.870;2022-08-03T01:49:03;3.50;;;3.20;;
7116;SDS011;3600;48.568;7.870;2022-08-03T01:51:36;3.33;;;3.03;;
7116;SDS011;3600;48.568;7.870;2022-08-03T01:54:27;3.35;;;3.13;;
7116;SDS011;3600;48.568;7.870;2022-08-03T01:56:56;3.38;;;3.17;;
7116;SDS011;3600;48.568;7.870;2022-08-03T01:59:24;3.53;;;3.22;;
7116;SDS011;3600;48.568;7.870;2022-08-03T02:01:52;3.20;;;3.00;;
7116;SDS011;3600;48.568;7.870;2022-08-03T02:04:41;4.05;;;3.15;;
7116;SDS011;3600;48.568;7.870;2022-08-03T02:07:09;3.50;;;3.20;;
7116;SDS011;3600;48.568;7.870;2022-08-03T02:09:38;4.13;;;3.25;;
7116;SDS011;3600;48.568;7.870;2022-08-03T02:12:10;4.32;;;3.60;;
7116;SDS011;3600;48.568;7.870;2022-08-03T02:14:39;4.40;;;4.00;;
7116;SDS011;3600;48.568;7.870;2022-08-03T02:17:08;3.40;;;3.20;;
7116;SDS011;3600;48.568;7.870;2022-08-03T02:19:36;3.90;;;3.40;;
7116;SDS011;3600;48.568;7.870;2022-08-03T02:22:04;4.55;;;2.97;;
7116;SDS011;3600;48.568;7.870;2022-08-03T02:24:33;3.08;;;2.88;;
7116;SDS011;3600;48.568;7.870;2022-08-03T02:27:00;3.58;;;3.28;;
7116;SDS011;3600;48.568;7.870;2022-08-03T02:29:31;3.80;;;3.40;;
7116;SDS011;3600;48.568;7.870;2022-08-03T02:32:07;3.17;;;2.97;;
7116;SDS011;3600;48.568;7.870;2022-08-03T02:34:38;3.60;;;3.30;;
7116;SDS011;3600;48.568;7.870;2022-08-03T02:37:07;4.03;;;3.53;;
7116;SDS011;3600;48.568;7.870;2022-08-03T02:39:36;3.55;;;3.25;;
7116;SDS011;3600;48.568;7.870;2022-08-03T02:42:05;5.93;;;3.45;;
7116;SDS011;3600;48.568;7.870;2022-08-03T02:44:37;4.18;;;3.83;;
7116;SDS011;3600;48.568;7.870;2022-08-03T02:47:06;3.90;;;3.60;;
7116;SDS011;3600;48.568;7.870;2022-08-03T02:49:36;3.85;;;3.55;;
7116;SDS011;3600;48.568;7.870;2022-08-03T02:52:17;4.95;;;3.78;;
7116;SDS011;3600;48.568;7.870;2022-08-03T02:54:49;4.30;;;3.90;;
7116;SDS011;3600;48.568;7.870;2022-08-03T02:57:20;4.20;;;3.90;;
7116;SDS011;3600;48.568;7.870;2022-08-03T02:59:48;4.25;;;3.85;;
7116;SDS011;3600;48.568;7.870;2022-08-03T03:02:16;4.32;;;3.92;;
7116;SDS011;3600;48.568;7.870;2022-08-03T03:04:44;4.40;;;4.10;;
7116;SDS011;3600;48.568;7.870;2022-08-03T03:07:32;4.22;;;3.92;;
7116;SDS011;3600;48.568;7.870;2022-08-03T03:10:17;4.43;;;4.00;;
7116;SDS011;3600;48.568;7.870;2022-08-03T03:12:52;4.30;;;3.90;;
7116;SDS011;3600;48.568;7.870;2022-08-03T03:15:22;4.38;;;4.07;;
7116;SDS011;3600;48.568;7.870;2022-08-03T03:17:50;4.32;;;3.92;;
7116;SDS011;3600;48.568;7.870;2022-08-03T03:20:19;3.83;;;3.53;;
7116;SDS011;3600;48.568;7.870;2022-08-03T03:22:55;3.50;;;3.30;;
7116;SDS011;3600;48.568;7.870;2022-08-03T03:25:25;4.40;;;3.42;;
7116;SDS011;3600;48.568;7.870;2022-08-03T03:27:53;4.05;;;3.67;;
7116;SDS011;3600;48.568;7.870;2022-08-03T03:30:22;3.75;;;3.47;;
7116;SDS011;3600;48.568;7.870;2022-08-03T03:32:50;4.22;;;3.92;;
7116;SDS011;3600;48.568;7.870;2022-08-03T03:35:18;3.95;;;3.65;;
7116;SDS011;3600;48.568;7.870;2022-08-03T03:37:45;4.30;;;3.90;;
7116;SDS011;3600;48.568;7.870;2022-08-03T03:40:12;4.93;;;3.47;;
7116;SDS011;3600;48.568;7.870;2022-08-03T03:42:39;4.35;;;3.95;;
7116;SDS011;3600;48.568;7.870;2022-08-03T03:45:07;4.20;;;3.72;;
7116;SDS011;3600;48.568;7.870;2022-08-03T03:47:34;4.95;;;4.45;;
7116;SDS011;3600;48.568;7.870;2022-08-03T03:50:02;4.28;;;3.97;;
7116;SDS011;3600;48.568;7.870;2022-08-03T03:52:30;4.57;;;4.18;;
7116;SDS011;3600;48.568;7.870;2022-08-03T03:54:57;4.53;;;4.22;;
7116;SDS011;3600;48.568;7.870;2022-08-03T03:57:26;4.30;;;3.75;;
7116;SDS011;3600;48.568;7.870;2022-08-03T03:59:54;4.55;;;3.80;;
7116;SDS011;3600;48.568;7.870;2022-08-03T04:02:21;4.25;;;3.85;;
7116;SDS011;3600;48.568;7.870;2022-08-03T04:04:48;5.22;;;4.30;;
7116;SDS011;3600;48.568;7.870;2022-08-03T04:07:36;5.35;;;4.15;;
7116;SDS011;3600;48.568;7.870;2022-08-03T04:13:41;5.90;;;4.53;;
7116;SDS011;3600;48.568;7.870;2022-08-03T04:16:15;6.10;;;4.60;;
7116;SDS011;3600;48.568;7.870;2022-08-03T04:18:46;5.65;;;3.72;;
7116;SDS011;3600;48.568;7.870;2022-08-03T04:21:17;3.95;;;3.65;;
7116;SDS011;3600;48.568;7.870;2022-08-03T04:23:47;4.32;;;3.92;;
7116;SDS011;3600;48.568;7.870;2022-08-03T04:26:19;3.97;;;3.67;;
7116;SDS011;3600;48.568;7.870;2022-08-03T04:28:47;4.38;;;3.97;;
7116;SDS011;3600;48.568;7.870;2022-08-03T04:31:16;5.28;;;4.22;;
7116;SDS011;3600;48.568;7.870;2022-08-03T04:33:47;4.40;;;4.00;;
7116;SDS011;3600;48.568;7.870;2022-08-03T04:36:16;3.97;;;3.58;;
7116;SDS011;3600;48.568;7.870;2022-08-03T04:39:03;3.90;;;3.60;;
7116;SDS011;3600;48.568;7.870;2022-08-03T04:41:35;4.68;;;3.35;;
7116;SDS011;3600;48.568;7.870;2022-08-03T04:44:24;4.30;;;3.20;;
7116;SDS011;3600;48.568;7.870;2022-08-03T04:46:53;3.60;;;3.40;;
7116;SDS011;3600;48.568;7.870;2022-08-03T04:49:22;5.45;;;3.67;;
7116;SDS011;3600;48.568;7.870;2022-08-03T04:51:49;4.95;;;3.58;;
7116;SDS011;3600;48.568;7.870;2022-08-03T04:54:16;3.65;;;3.00;;
7116;SDS011;3600;48.568;7.870;2022-08-03T04:56:43;4.15;;;3.72;;
7116;SDS011;3600;48.568;7.870;2022-08-03T04:59:10;3.70;;;3.40;;
7116;SDS011;3600;48.568;7.870;2022-08-03T05:01:38;4.22;;;3.83;;
7116;SDS011;3600;48.568;7.870;2022-08-03T05:04:06;3.33;;;3.13;;
7116;SDS011;3600;48.568;7.870;2022-08-03T05:06:33;3.80;;;3.50;;
7116;SDS011;3600;48.568;7.870;2022-08-03T05:09:00;4.68;;;3.58;;
7116;SDS011;3600;48.568;7.870;2022-08-03T05:11:29;3.60;;;3.30;;
7116;SDS011;3600;48.568;7.870;2022-08-03T05:13:56;3.42;;;3.22;;
7116;SDS011;3600;48.568;7.870;2022-08-03T05:16:22;5.38;;;3.33;;
7116;SDS011;3600;48.568;7.870;2022-08-03T05:18:50;3.50;;;3.20;;
7116;SDS011;3600;48.568;7.870;2022-08-03T05:21:17;3.25;;;2.97;;
7116;SDS011;3600;48.568;7.870;2022-08-03T05:23:44;3.80;;;3.50;;
7116;SDS011;3600;48.568;7.870;2022-08-03T05:26:11;3.03;;;2.83;;
7116;SDS011;3600;48.568;7.870;2022-08-03T05:28:38;3.33;;;2.85;;
7116;SDS011;3600;48.568;7.870;2022-08-03T05:31:16;3.97;;;3.22;;
7116;SDS011;3600;48.568;7.870;2022-08-03T05:33:43;4.13;;;3.08;;
7116;SDS011;3600;48.568;7.870;2022-08-03T05:36:09;3.70;;;3.33;;
7116;SDS011;3600;48.568;7.870;2022-08-03T05:38:36;4.53;;;3.42;;
7116;SDS011;3600;48.568;7.870;2022-08-03T05:41:03;4.07;;;3.78;;
7116;SDS011;3600;48.568;7.870;2022-08-03T05:43:49;3.75;;;3.45;;
7116;SDS011;3600;48.568;7.870;2022-08-03T05:46:17;6.70;;;3.33;;
7116;SDS011;3600;48.568;7.870;2022-08-03T05:48:44;4.60;;;3.97;;
7116;SDS011;3600;48.568;7.870;2022-08-03T05:51:10;7.85;;;4.93;;
7116;SDS011;3600;48.568;7.870;2022-08-03T05:53:39;5.05;;;4.20;;
7116;SDS011;3600;48.568;7.870;2022-08-03T05:56:06;6.07;;;4.70;;
7116;SDS011;3600;48.568;7.870;2022-08-03T05:58:50;8.27;;;4.70;;
7116;SDS011;3600;48.568;7.870;2022-08-03T06:01:18;5.95;;;4.68;;
7116;SDS011;3600;48.568;7.870;2022-08-03T06:03:47;6.80;;;4.78;;
7116;SDS011;3600;48.568;7.870;2022-08-03T06:06:15;5.10;;;4.57;;
7116;SDS011;3600;48.568;7.870;2022-08-03T06:08:42;5.57;;;4.18;;
7116;SDS011;3600;48.568;7.870;2022-08-03T06:11:10;8.88;;;4.45;;
7116;SDS011;3600;48.568;7.870;2022-08-03T06:13:37;5.90;;;4.00;;
7116;SDS011;3600;48.568;7.870;2022-08-03T06:16:04;4.25;;;3.90;;
7116;SDS011;3600;48.568;7.870;2022-08-03T06:18:32;4.07;;;3.78;;
7116;SDS011;3600;48.568;7.870;2022-08-03T06:20:59;4.88;;;4.20;;
7116;SDS011;3600;48.568;7.870;2022-08-03T06:23:41;5.60;;;4.28;;
7116;SDS011;3600;48.568;7.870;2022-08-03T06:26:20;4.65;;;4.25;;
7116;SDS011;3600;48.568;7.870;2022-08-03T06:28:51;4.95;;;4.55;;
7116;SDS011;3600;48.568;7.870;2022-08-03T06:31:20;6.38;;;5.13;;
7116;SDS011;3600;48.568;7.870;2022-08-03T06:33:49;5.20;;;4.80;;
7116;SDS011;3600;48.568;7.870;2022-08-03T06:36:35;5.20;;;4.45;;
7116;SDS011;3600;48.568;7.870;2022-08-03T06:39:02;6.82;;;4.80;;
7116;SDS011;3600;48.568;7.870;2022-08-03T06:41:29;5.30;;;4.80;;
7116;SDS011;3600;48.568;7.870;2022-08-03T06:44:02;5.50;;;5.00;;
7116;SDS011;3600;48.568;7.870;2022-08-03T06:46:29;7.45;;;4.70;;
7116;SDS011;3600;48.568;7.870;2022-08-03T06:48:56;5.00;;;4.25;;
7116;SDS011;3600;48.568;7.870;2022-08-03T06:51:23;5.78;;;4.53;;
7116;SDS011;3600;48.568;7.870;2022-08-03T06:54:10;5.47;;;4.88;;
7116;SDS011;3600;48.568;7.870;2022-08-03T06:56:37;4.93;;;4.47;;
7116;SDS011;3600;48.568;7.870;2022-08-03T06:59:04;6.22;;;5.13;;
7116;SDS011;3600;48.568;7.870;2022-08-03T07:01:31;5.20;;;4.70;;
7116;SDS011;3600;48.568;7.870;2022-08-03T07:03:57;4.45;;;4.05;;
7116;SDS011;3600;48.568;7.870;2022-08-03T07:06:25;5.75;;;4.72;;
7116;SDS011;3600;48.568;7.870;2022-08-03T07:08:52;5.25;;;4.85;;
7116;SDS011;3600;48.568;7.870;2022-08-03T07:11:24;4.75;;;4.35;;
7116;SDS011;3600;48.568;7.870;2022-08-03T07:13:51;4.65;;;4.10;;
7116;SDS011;3600;48.568;7.870;2022-08-03T07:16:18;6.22;;;4.90;;
7116;SDS011;3600;48.568;7.870;2022-08-03T07:18:45;5.43;;;4.78;;
7116;SDS011;3600;48.568;7.870;2022-08-03T07:21:12;5.40;;;4.90;;
7116;SDS011;3600;48.568;7.870;2022-08-03T07:23:38;6.20;;;5.25;;
7116;SDS011;3600;48.568;7.870;2022-08-03T07:26:05;6.07;;;4.97;;
7116;SDS011;3600;48.568;7.870;2022-08-03T07:28:32;6.35;;;4.43;;
7116;SDS011;3600;48.568;7.870;2022-08-03T07:30:59;10.32;;;4.97;;
7116;SDS011;3600;48.568;7.870;2022-08-03T07:33:25;6.78;;;4.70;;
7116;SDS011;3600;48.568;7.870;2022-08-03T07:35:52;4.65;;;4.20;;
7116;SDS011;3600;48.568;7.870;2022-08-03T07:38:19;5.40;;;4.50;;
7116;SDS011;3600;48.568;7.870;2022-08-03T07:40:46;4.75;;;4.03;;
7116;SDS011;3600;48.568;7.870;2022-08-03T07:43:13;4.72;;;4.30;;
7116;SDS011;3600;48.568;7.870;2022-08-03T07:45:40;4.93;;;4.43;;
7116;SDS011;3600;48.568;7.870;2022-08-03T07:48:06;5.28;;;3.75;;
7116;SDS011;3600;48.568;7.870;2022-08-03T07:50:37;4.93;;;4.53;;
7116;SDS011;3600;48.568;7.870;2022-08-03T07:53:04;4.95;;;4.22;;
7116;SDS011;3600;48.568;7.870;2022-08-03T07:55:31;3.95;;;3.65;;
7116;SDS011;3600;48.568;7.870;2022-08-03T07:58:02;5.10;;;4.13;;
7116;SDS011;3600;48.568;7.870;2022-08-03T08:00:35;5.00;;;4.50;;
7116;SDS011;3600;48.568;7.870;2022-08-03T08:03:02;4.25;;;3.85;;
7116;SDS011;3600;48.568;7.870;2022-08-03T08:05:29;5.85;;;4.47;;
7116;SDS011;3600;48.568;7.870;2022-08-03T08:07:56;4.45;;;4.05;;
7116;SDS011;3600;48.568;7.870;2022-08-03T08:10:23;3.90;;;3.60;;
7116;SDS011;3600;48.568;7.870;2022-08-03T08:12:50;4.82;;;4.05;;
7116;SDS011;3600;48.568;7.870;2022-08-03T08:15:17;5.57;;;3.78;;
7116;SDS011;3600;48.568;7.870;2022-08-03T08:17:44;5.00;;;3.83;;
7116;SDS011;3600;48.568;7.870;2022-08-03T08:20:16;4.40;;;4.00;;
7116;SDS011;3600;48.568;7.870;2022-08-03T08:22:56;7.25;;;4.10;;
7116;SDS011;3600;48.568;7.870;2022-08-03T08:25:26;4.95;;;4.45;;
7116;SDS011;3600;48.568;7.870;2022-08-03T08:27:53;5.28;;;4.13;;
7116;SDS011;3600;48.568;7.870;2022-08-03T08:30:40;10.25;;;3.67;;
7116;SDS011;3600;48.568;7.870;2022-08-03T08:33:07;7.15;;;3.92;;
7116;SDS011;3600;48.568;7.870;2022-08-03T08:35:49;4.20;;;3.50;;
7116;SDS011;3600;48.568;7.870;2022-08-03T08:38:17;4.15;;;3.85;;
7116;SDS011;3600;48.568;7.870;2022-08-03T08:40:44;5.88;;;3.85;;
7116;SDS011;3600;48.568;7.870;2022-08-03T08:43:11;4.13;;;3.83;;
7116;SDS011;3600;48.568;7.870;2022-08-03T08:45:39;4.57;;;3.75;;
7116;SDS011;3600;48.568;7.870;2022-08-03T08:48:06;4.38;;;3.60;;
7116;SDS011;3600;48.568;7.870;2022-08-03T08:50:36;4.10;;;3.67;;
7116;SDS011;3600;48.568;7.870;2022-08-03T08:53:05;10.65;;;3.70;;
7116;SDS011;3600;48.568;7.870;2022-08-03T08:55:43;8.10;;;4.13;;
7116;SDS011;3600;48.568;7.870;2022-08-03T08:58:25;4.82;;;4.00;;
7116;SDS011;3600;48.568;7.870;2022-08-03T09:00:55;5.43;;;3.63;;
7116;SDS011;3600;48.568;7.870;2022-08-03T09:03:22;6.45;;;3.67;;
7116;SDS011;3600;48.568;7.870;2022-08-03T09:05:56;6.57;;;3.47;;
7116;SDS011;3600;48.568;7.870;2022-08-03T09:08:28;5.20;;;3.45;;
7116;SDS011;3600;48.568;7.870;2022-08-03T09:10:55;4.88;;;3.60;;
7116;SDS011;3600;48.568;7.870;2022-08-03T09:13:22;6.53;;;4.00;;
7116;SDS011;3600;48.568;7.870;2022-08-03T09:16:05;5.45;;;3.40;;
7116;SDS011;3600;48.568;7.870;2022-08-03T09:18:34;3.67;;;3.28;;
7116;SDS011;3600;48.568;7.870;2022-08-03T09:21:17;8.20;;;3.35;;
7116;SDS011;3600;48.568;7.870;2022-08-03T09:23:59;3.53;;;3.22;;
7116;SDS011;3600;48.568;7.870;2022-08-03T09:26:32;4.07;;;3.28;;
7116;SDS011;3600;48.568;7.870;2022-08-03T09:29:19;7.10;;;2.97;;
7116;SDS011;3600;48.568;7.870;2022-08-03T09:31:46;3.50;;;3.20;;
7116;SDS011;3600;48.568;7.870;2022-08-03T09:34:13;6.90;;;3.60;;
7116;SDS011;3600;48.568;7.870;2022-08-03T09:36:46;4.88;;;3.42;;
7116;SDS011;3600;48.568;7.870;2022-08-03T09:39:17;5.72;;;3.03;;
7116;SDS011;3600;48.568;7.870;2022-08-03T09:42:07;4.93;;;3.10;;
7116;SDS011;3600;48.568;7.870;2022-08-03T09:44:47;3.70;;;2.92;;
7116;SDS011;3600;48.568;7.870;2022-08-03T09:47:16;4.90;;;2.83;;
7116;SDS011;3600;48.568;7.870;2022-08-03T09:49:57;4.75;;;2.67;;
7116;SDS011;3600;48.568;7.870;2022-08-03T09:52:34;3.85;;;2.97;;
7116;SDS011;3600;48.568;7.870;2022-08-03T09:55:17;3.30;;;2.53;;
7116;SDS011;3600;48.568;7.870;2022-08-03T09:58:06;6.07;;;2.80;;
7116;SDS011;3600;48.568;7.870;2022-08-03T10:00:51;3.42;;;3.13;;
7116;SDS011;3600;48.568;7.870;2022-08-03T10:03:26;6.40;;;2.85;;
7116;SDS011;3600;48.568;7.870;2022-08-03T10:05:55;2.83;;;2.58;;
7116;SDS011;3600;48.568;7.870;2022-08-03T10:08:25;3.80;;;2.65;;
7116;SDS011;3600;48.568;7.870;2022-08-03T10:10:52;3.92;;;3.00;;
7116;SDS011;3600;48.568;7.870;2022-08-03T10:13:20;3.38;;;3.17;;
7116;SDS011;3600;48.568;7.870;2022-08-03T10:15:48;3.17;;;2.88;;
7116;SDS011;3600;48.568;7.870;2022-08-03T10:18:35;3.25;;;2.70;;
7116;SDS011;3600;48.568;7.870;2022-08-03T10:21:03;2.85;;;2.65;;
7116;SDS011;3600;48.568;7.870;2022-08-03T10:23:33;3.97;;;2.50;;
7116;SDS011;3600;48.568;7.870;2022-08-03T10:26:01;3.63;;;2.83;;
7116;SDS011;3600;48.568;7.870;2022-08-03T10:28:36;3.33;;;3.03;;
7116;SDS011;3600;48.568;7.870;2022-08-03T10:31:10;3.38;;;2.70;;
7116;SDS011;3600;48.568;7.870;2022-08-03T10:33:42;3.05;;;2.55;;
7116;SDS011;3600;48.568;7.870;2022-08-03T10:36:15;3.55;;;2.75;;
7116;SDS011;3600;48.568;7.870;2022-08-03T10:38:43;2.83;;;2.63;;
7116;SDS011;3600;48.568;7.870;2022-08-03T10:41:13;3.80;;;2.55;;
7116;SDS011;3600;48.568;7.870;2022-08-03T10:43:46;2.50;;;2.30;;
7116;SDS011;3600;48.568;7.870;2022-08-03T10:46:18;3.38;;;2.50;;
7116;SDS011;3600;48.568;7.870;2022-08-03T10:48:47;2.50;;;2.30;;
7116;SDS011;3600;48.568;7.870;2022-08-03T10:51:15;2.72;;;2.40;;
7116;SDS011;3600;48.568;7.870;2022-08-03T10:53:42;2.38;;;2.25;;
7116;SDS011;3600;48.568;7.870;2022-08-03T10:59:55;2.13;;;1.95;;
7116;SDS011;3600;48.568;7.870;2022-08-03T11:02:14;2.10;;;2.00;;
7116;SDS011;3600;48.568;7.870;2022-08-03T11:04:41;2.42;;;2.05;;
7116;SDS011;3600;48.568;7.870;2022-08-03T11:07:19;2.15;;;1.75;;
7116;SDS011;3600;48.568;7.870;2022-08-03T11:09:49;3.55;;;2.00;;
7116;SDS011;3600;48.568;7.870;2022-08-03T11:14:58;2.10;;;1.90;;
7116;SDS011;3600;48.568;7.870;2022-08-03T11:17:27;2.20;;;2.00;;
7116;SDS011;3600;48.568;7.870;2022-08-03T11:19:53;3.30;;;1.90;;
7116;SDS011;3600;48.568;7.870;2022-08-03T11:22:23;2.38;;;2.03;;
7116;SDS011;3600;48.568;7.870;2022-08-03T11:27:20;1.73;;;1.58;;
7116;SDS011;3600;48.568;7.870;2022-08-03T11:43:01;3.55;;;1.92;;
7116;SDS011;3600;48.568;7.870;2022-08-03T11:45:29;1.88;;;1.77;;
7116;SDS011;3600;48.568;7.870;2022-08-03T11:47:56;1.55;;;1.45;;
7116;SDS011;3600;48.568;7.870;2022-08-03T11:50:25;1.65;;;1.55;;
7116;SDS011;3600;48.568;7.870;2022-08-03T11:52:51;1.90;;;1.80;;
7116;SDS011;3600;48.568;7.870;2022-08-03T11:55:19;2.08;;;1.48;;
7116;SDS011;3600;48.568;7.870;2022-08-03T11:57:47;1.65;;;1.42;;
7116;SDS011;3600;48.568;7.870;2022-08-03T12:00:34;1.50;;;1.40;;
7116;SDS011;3600;48.568;7.870;2022-08-03T12:03:06;1.85;;;1.40;;
7116;SDS011;3600;48.568;7.870;2022-08-03T12:05:56;1.58;;;1.48;;
7116;SDS011;3600;48.568;7.870;2022-08-03T12:10:52;1.55;;;1.45;;
7116;SDS011;3600;48.568;7.870;2022-08-03T12:13:20;1.58;;;1.48;;
7116;SDS011;3600;48.568;7.870;2022-08-03T12:16:08;1.80;;;1.70;;
7116;SDS011;3600;48.568;7.870;2022-08-03T12:18:35;2.15;;;2.00;;
7116;SDS011;3600;48.568;7.870;2022-08-03T12:21:11;1.73;;;1.50;;
7116;SDS011;3600;48.568;7.870;2022-08-03T12:23:38;1.50;;;1.40;;
7116;SDS011;3600;48.568;7.870;2022-08-03T12:26:06;2.25;;;2.00;;
7116;SDS011;3600;48.568;7.870;2022-08-03T12:28:35;2.45;;;1.60;;
7116;SDS011;3600;48.568;7.870;2022-08-03T12:31:07;1.45;;;1.35;;
7116;SDS011;3600;48.568;7.870;2022-08-03T12:36:24;1.90;;;1.80;;
7116;SDS011;3600;48.568;7.870;2022-08-03T12:38:59;1.65;;;1.55;;
7116;SDS011;3600;48.568;7.870;2022-08-03T12:41:31;1.70;;;1.60;;
7116;SDS011;3600;48.568;7.870;2022-08-03T12:44:01;2.30;;;1.42;;
7116;SDS011;3600;48.568;7.870;2022-08-03T12:46:30;1.40;;;1.30;;
7116;SDS011;3600;48.568;7.870;2022-08-03T12:49:05;1.50;;;1.40;;
7116;SDS011;3600;48.568;7.870;2022-08-03T12:51:34;1.67;;;1.50;;
7116;SDS011;3600;48.568;7.870;2022-08-03T12:54:03;1.45;;;1.35;;
7116;SDS011;3600;48.568;7.870;2022-08-03T12:56:30;1.90;;;1.80;;
7116;SDS011;3600;48.568;7.870;2022-08-03T12:58:57;1.50;;;1.40;;
7116;SDS011;3600;48.568;7.870;2022-08-03T13:01:24;1.92;;;1.65;;
7116;SDS011;3600;48.568;7.870;2022-08-03T13:03:53;1.65;;;1.25;;
7116;SDS011;3600;48.568;7.870;2022-08-03T13:06:23;1.80;;;1.70;;
7116;SDS011;3600;48.568;7.870;2022-08-03T13:09:01;1.83;;;1.73;;
7116;SDS011;3600;48.568;7.870;2022-08-03T13:11:32;1.80;;;1.70;;
7116;SDS011;3600;48.568;7.870;2022-08-03T13:14:19;3.33;;;1.77;;
7116;SDS011;3600;48.568;7.870;2022-08-03T13:16:47;2.90;;;1.70;;
7116;SDS011;3600;48.568;7.870;2022-08-03T13:19:14;1.83;;;1.60;;
7116;SDS011;3600;48.568;7.870;2022-08-03T13:21:41;1.70;;;1.60;;
7116;SDS011;3600;48.568;7.870;2022-08-03T13:24:29;3.10;;;1.88;;
7116;SDS011;3600;48.568;7.870;2022-08-03T13:26:57;1.35;;;1.35;;
7116;SDS011;3600;48.568;7.870;2022-08-03T13:29:24;2.17;;;1.98;;
7116;SDS011;3600;48.568;7.870;2022-08-03T13:31:51;2.00;;;1.90;;
7116;SDS011;3600;48.568;7.870;2022-08-03T13:34:17;1.80;;;1.70;;
7116;SDS011;3600;48.568;7.870;2022-08-03T13:36:48;1.65;;;1.55;;
7116;SDS011;3600;48.568;7.870;2022-08-03T13:39:36;1.70;;;1.60;;
7116;SDS011;3600;48.568;7.870;2022-08-03T13:42:23;1.63;;;1.52;;
7116;SDS011;3600;48.568;7.870;2022-08-03T13:44:50;1.55;;;1.50;;
7116;SDS011;3600;48.568;7.870;2022-08-03T13:47:17;1.98;;;1.77;;
7116;SDS011;3600;48.568;7.870;2022-08-03T13:49:45;2.10;;;1.70;;
7116;SDS011;3600;48.568;7.870;2022-08-03T13:52:25;1.85;;;1.75;;
7116;SDS011;3600;48.568;7.870;2022-08-03T13:54:53;1.70;;;1.60;;
7116;SDS011;3600;48.568;7.870;2022-08-03T13:57:20;1.67;;;1.58;;
7116;SDS011;3600;48.568;7.870;2022-08-03T14:00:07;2.08;;;1.65;;
7116;SDS011;3600;48.568;7.870;2022-08-03T14:02:34;2.13;;;1.70;;
7116;SDS011;3600;48.568;7.870;2022-08-03T14:05:01;1.70;;;1.60;;
7116;SDS011;3600;48.568;7.870;2022-08-03T14:07:28;2.08;;;1.60;;
7116;SDS011;3600;48.568;7.870;2022-08-03T14:09:54;1.48;;;1.38;;
7116;SDS011;3600;48.568;7.870;2022-08-03T14:12:22;1.35;;;1.30;;
7116;SDS011;3600;48.568;7.870;2022-08-03T14:14:48;1.90;;;1.38;;
7116;SDS011;3600;48.568;7.870;2022-08-03T14:17:15;1.67;;;1.48;;
7116;SDS011;3600;48.568;7.870;2022-08-03T14:19:42;1.60;;;1.50;;
7116;SDS011;3600;48.568;7.870;2022-08-03T14:22:19;1.50;;;1.38;;
7116;SDS011;3600;48.568;7.870;2022-08-03T14:24:46;3.05;;;1.30;;
7116;SDS011;3600;48.568;7.870;2022-08-03T14:27:14;1.95;;;1.30;;
7116;SDS011;3600;48.568;7.870;2022-08-03T14:29:41;2.33;;;1.30;;
7116;SDS011;3600;48.568;7.870;2022-08-03T14:32:08;1.50;;;1.40;;
7116;SDS011;3600;48.568;7.870;2022-08-03T14:34:38;1.25;;;1.17;;
7116;SDS011;3600;48.568;7.870;2022-08-03T14:37:06;1.25;;;1.17;;
7116;SDS011;3600;48.568;7.870;2022-08-03T14:39:33;1.27;;;1.20;;
7116;SDS011;3600;48.568;7.870;2022-08-03T14:42:20;1.33;;;1.10;;
7116;SDS011;3600;48.568;7.870;2022-08-03T14:44:46;1.38;;;1.00;;
7116;SDS011;3600;48.568;7.870;2022-08-03T14:47:13;3.13;;;1.15;;
7116;SDS011;3600;48.568;7.870;2022-08-03T14:49:40;1.38;;;1.17;;
7116;SDS011;3600;48.568;7.870;2022-08-03T14:52:28;3.00;;;1.30;;
7116;SDS011;3600;48.568;7.870;2022-08-03T14:54:54;1.52;;;1.10;;
7116;SDS011;3600;48.568;7.870;2022-08-03T14:57:21;1.35;;;1.25;;
7116;SDS011;3600;48.568;7.870;2022-08-03T14:59:48;1.27;;;1.17;;
7116;SDS011;3600;48.568;7.870;2022-08-03T15:02:22;1.30;;;1.20;;
7116;SDS011;3600;48.568;7.870;2022-08-03T15:04:50;1.13;;;1.13;;
7116;SDS011;3600;48.568;7.870;2022-08-03T15:07:17;1.20;;;1.20;;
7116;SDS011;3600;48.568;7.870;2022-08-03T15:09:46;1.50;;;1.40;;
7116;SDS011;3600;48.568;7.870;2022-08-03T15:12:12;1.33;;;1.23;;
7116;SDS011;3600;48.568;7.870;2022-08-03T15:14:39;3.92;;;1.30;;
7116;SDS011;3600;48.568;7.870;2022-08-03T15:17:06;1.75;;;1.40;;
7116;SDS011;3600;48.568;7.870;2022-08-03T15:19:33;1.48;;;1.38;;
7116;SDS011;3600;48.568;7.870;2022-08-03T15:22:20;2.00;;;1.60;;
7116;SDS011;3600;48.568;7.870;2022-08-03T15:25:03;1.45;;;1.40;;
7116;SDS011;3600;48.568;7.870;2022-08-03T15:27:50;2.30;;;1.52;;
7116;SDS011;3600;48.568;7.870;2022-08-03T15:30:29;1.40;;;1.30;;
7116;SDS011;3600;48.568;7.870;2022-08-03T15:33:00;1.63;;;1.35;;
7116;SDS011;3600;48.568;7.870;2022-08-03T15:35:27;3.03;;;1.55;;
7116;SDS011;3600;48.568;7.870;2022-08-03T15:37:54;2.08;;;1.30;;
7116;SDS011;3600;48.568;7.870;2022-08-03T15:40:21;1.50;;;1.40;;
7116;SDS011;3600;48.568;7.870;2022-08-03T15:42:48;1.70;;;1.60;;
7116;SDS011;3600;48.568;7.870;2022-08-03T15:45:14;1.80;;;1.52;;
7116;SDS011;3600;48.568;7.870;2022-08-03T15:47:45;1.70;;;1.60;;
7116;SDS011;3600;48.568;7.870;2022-08-03T15:50:12;1.63;;;1.52;;
7116;SDS011;3600;48.568;7.870;2022-08-03T15:52:39;2.60;;;1.63;;
7116;SDS011;3600;48.568;7.870;2022-08-03T15:55:06;1.90;;;1.75;;
7116;SDS011;3600;48.568;7.870;2022-08-03T15:57:33;1.88;;;1.77;;
7116;SDS011;3600;48.568;7.870;2022-08-03T16:00:20;1.38;;;1.30;;
7116;SDS011;3600;48.568;7.870;2022-08-03T16:02:59;1.60;;;1.52;;
7116;SDS011;3600;48.568;7.870;2022-08-03T16:05:26;1.80;;;1.70;;
7116;SDS011;3600;48.568;7.870;2022-08-03T16:07:53;1.50;;;1.40;;
7116;SDS011;3600;48.568;7.870;2022-08-03T16:10:29;1.33;;;1.33;;
7116;SDS011;3600;48.568;7.870;2022-08-03T16:12:56;1.90;;;1.80;;
7116;SDS011;3600;48.568;7.870;2022-08-03T16:15:26;1.73;;;1.60;;
7116;SDS011;3600;48.568;7.870;2022-08-03T16:17:53;2.05;;;1.70;;
7116;SDS011;3600;48.568;7.870;2022-08-03T16:20:20;3.38;;;1.60;;
7116;SDS011;3600;48.568;7.870;2022-08-03T16:23:00;1.58;;;1.48;;
7116;SDS011;3600;48.568;7.870;2022-08-03T16:25:37;1.73;;;1.63;;
7116;SDS011;3600;48.568;7.870;2022-08-03T16:28:14;1.55;;;1.42;;